Terminal Aerodrome Forecast
Issued by NWS

Home | Current Version | Previous Version | Text Only | Print | Product List | Glossary On
Versions: 1 2 3 4 5 6 7 8 9 10 11 12 13 14 15 16 17 18 19 20 21 22 23 24 25 26 27 28 29
000
FTUS44 KLIX 142300
TAFHUM
TAF
KHUM 142321Z 1500/1524 06007KT P6SM SCT028
     FM150100 09006KT P6SM FEW025
     FM151400 08007KT P6SM BKN025
     FM151700 10007KT P6SM SCT035
      TEMPO 1518/1522 VRB25KT 2SM TSRA BKN025CB=

USA.gov is the U.S. government's official web portal to all federal, state and local government web resources and services.